Wetterdaten: Woche 06.02.17 - 12.02.17 (KW6)
Datum Zeit Temp. Aussen Temp. o. S. +5cm Feuchte Auss BlattFeu 1 Luftdruck Regen Sonnenschein Regendauer Solar Windben Empfang
06.02.2017 00:00 5,0 C 4,4 C 2,4 C 88 % 0 lf 1008,1 hPa 0,0 l/m 0,00 h 0,00 h 5 W/m 8,1 km/h (2 Bft) 96,61 %
06.02.2017 01:00 3,9 C 2,6 C 0,7 C 89 % 0 lf 1008,8 hPa 0,0 l/m 0,00 h 0,00 h 5 W/m 5,9 km/h (2 Bft) 96,01 %
06.02.2017 02:00 2,8 C 1,6 C 0,0 C 90 % 1 lf 1009,6 hPa 0,0 l/m 0,00 h 0,00 h 0 W/m 5,9 km/h (2 Bft) 94,37 %
06.02.2017 03:00 1,8 C 0,3 C -1,5 C 91 % 2 lf 1010,8 hPa 0,0 l/m 0,00 h 0,00 h 0 W/m 5,0 km/h (1 Bft) 95,58 %
06.02.2017 04:00 0,9 C -0,7 C -2,3 C 91 % 10 lf 1011,9 hPa 0,0 l/m 0,00 h 0,00 h 0 W/m 5,0 km/h (1 Bft) 96,38 %
06.02.2017 05:00 0,5 C -0,7 C -2,4 C 93 % 15 lf 1012,8 hPa 0,0 l/m 0,00 h 0,00 h 0 W/m 4,3 km/h (1 Bft) 97,29 %
06.02.2017 06:00 -0,0 C -1,7 C -2,9 C 93 % 15 lf 1013,5 hPa 0,0 l/m 0,00 h 0,00 h 0 W/m 4,2 km/h (1 Bft) 94,30 %
06.02.2017 07:00 -0,6 C -1,4 C -3,1 C 93 % 15 lf 1014,5 hPa 0,0 l/m 0,00 h 0,00 h 13 W/m 6,0 km/h (2 Bft) 95,51 %
06.02.2017 08:00 -0,3 C -0,7 C -2,5 C 94 % 15 lf 1015,8 hPa 0,0 l/m 0,73 h 0,00 h 42 W/m 2,4 km/h (1 Bft) 97,15 %
06.02.2017 09:00 0,2 C 2,0 C -0,2 C 95 % 15 lf 1016,8 hPa 0,0 l/m 0,83 h 0,00 h 118 W/m 0,4 km/h (0 Bft) 95,80 %
06.02.2017 10:00 1,8 C 5,4 C 1,8 C 96 % 15 lf 1017,4 hPa 0,0 l/m 1,00 h 0,00 h 194 W/m 2,3 km/h (1 Bft) 95,51 %
06.02.2017 11:00 3,7 C 10,9 C 4,9 C 97 % 1 lf 1017,7 hPa 0,0 l/m 1,00 h 0,00 h 321 W/m 6,2 km/h (2 Bft) 96,59 %
06.02.2017 12:00 5,6 C 11,0 C 6,9 C 96 % 0 lf 1017,6 hPa 0,0 l/m 0,77 h 0,00 h 279 W/m 7,2 km/h (2 Bft) 94,80 %
06.02.2017 13:00 8,1 C 14,9 C 7,2 C 77 % 0 lf 1017,3 hPa 0,0 l/m 1,00 h 0,00 h 426 W/m 14,5 km/h (3 Bft) 93,66 %
06.02.2017 14:00 8,5 C 11,5 C 6,5 C 67 % 0 lf 1017,2 hPa 0,0 l/m 0,70 h 0,00 h 216 W/m 12,4 km/h (3 Bft) 97,79 %
06.02.2017 15:00 8,2 C 10,2 C 7,2 C 69 % 0 lf 1017,5 hPa 0,0 l/m 0,90 h 0,00 h 168 W/m 8,9 km/h (2 Bft) 96,79 %
06.02.2017 16:00 7,6 C 7,9 C 6,2 C 72 % 0 lf 1017,9 hPa 0,0 l/m 0,53 h 0,00 h 74 W/m 9,3 km/h (2 Bft) 94,59 %
06.02.2017 17:00 6,8 C 6,7 C 5,0 C 77 % 0 lf 1018,5 hPa 0,0 l/m 0,32 h 0,00 h 24 W/m 7,9 km/h (2 Bft) 96,87 %
06.02.2017 18:00 6,2 C 6,0 C 4,0 C 79 % 0 lf 1018,8 hPa 0,0 l/m 0,00 h 0,00 h 0 W/m 11,0 km/h (2 Bft) 95,71 %
06.02.2017 19:00 5,5 C 5,3 C 3,3 C 83 % 0 lf 1018,9 hPa 0,0 l/m 0,00 h 0,00 h 0 W/m 13,1 km/h (3 Bft) 95,16 %
06.02.2017 20:00 4,5 C 4,4 C 2,9 C 87 % 0 lf 1018,7 hPa 0,0 l/m 0,00 h 0,00 h 0 W/m 16,2 km/h (3 Bft) 95,58 %
06.02.2017 21:00 4,0 C 4,3 C 2,8 C 90 % 0 lf 1018,3 hPa 0,0 l/m 0,00 h 0,00 h 0 W/m 16,0 km/h (3 Bft) 95,93 %
06.02.2017 22:00 3,9 C 3,9 C 2,6 C 90 % 0 lf 1018,2 hPa 0,0 l/m 0,00 h 0,00 h 0 W/m 8,3 km/h (2 Bft) 96,44 %
06.02.2017 23:00 3,7 C 3,8 C 2,0 C 91 % 0 lf 1017,8 hPa 0,0 l/m 0,00 h 0,00 h 1 W/m 6,6 km/h (2 Bft) 95,31 %
07.02.2017 00:00 3,4 C 3,3 C 1,6 C 91 % 0 lf 1017,7 hPa 0,0 l/m 0,00 h 0,00 h 1 W/m 1,9 km/h (1 Bft) 93,33 %
07.02.2017 01:00 3,2 C 3,4 C 1,8 C 91 % 0 lf 1017,4 hPa 0,0 l/m 0,00 h 0,00 h 0 W/m 4,3 km/h (1 Bft) 97,17 %
07.02.2017 02:00 3,3 C 3,9 C 2,1 C 92 % 0 lf 1017,0 hPa 0,0 l/m 0,00 h 0,00 h 0 W/m 9,3 km/h (2 Bft) 96,78 %
07.02.2017 03:00 3,6 C 4,2 C 2,6 C 90 % 0 lf 1016,5 hPa 0,0 l/m 0,00 h 0,00 h 0 W/m 11,5 km/h (2 Bft) 94,57 %
07.02.2017 04:00 3,9 C 4,4 C 2,8 C 87 % 0 lf 1016,2 hPa 0,0 l/m 0,00 h 0,00 h 0 W/m 12,5 km/h (3 Bft) 97,43 %
07.02.2017 05:00 4,0 C 4,4 C 2,8 C 87 % 0 lf 1015,9 hPa 0,0 l/m 0,00 h 0,00 h 0 W/m 12,2 km/h (2 Bft) 94,43 %
07.02.2017 06:00 4,0 C 4,4 C 2,8 C 87 % 0 lf 1015,9 hPa 0,0 l/m 0,00 h 0,00 h 0 W/m 14,1 km/h (3 Bft) 96,91 %
07.02.2017 07:00 4,0 C 4,1 C 2,4 C 88 % 1 lf 1015,8 hPa 0,0 l/m 0,00 h 0,13 h 0 W/m 14,4 km/h (3 Bft) 96,97 %
07.02.2017 08:00 4,0 C 4,3 C 2,5 C 89 % 0 lf 1015,9 hPa 0,0 l/m 0,00 h 0,07 h 12 W/m 14,7 km/h (3 Bft) 92,63 %
07.02.2017 09:00 4,1 C 3,5 C 2,4 C 90 % 13 lf 1015,8 hPa 0,4 l/m 0,00 h 0,90 h 43 W/m 15,0 km/h (3 Bft) 96,83 %
07.02.2017 10:00 4,0 C 3,9 C 2,9 C 93 % 15 lf 1015,7 hPa 0,4 l/m 0,00 h 0,97 h 73 W/m 14,1 km/h (3 Bft) 96,81 %
07.02.2017 11:00 4,2 C 4,4 C 3,6 C 95 % 15 lf 1015,8 hPa 0,4 l/m 0,00 h 1,00 h 113 W/m 15,7 km/h (3 Bft) 95,77 %
07.02.2017 12:00 4,7 C 4,8 C 3,9 C 95 % 9 lf 1015,7 hPa 0,2 l/m 0,00 h 0,90 h 106 W/m 16,0 km/h (3 Bft) 95,12 %
07.02.2017 13:00 4,7 C 4,7 C 3,9 C 96 % 6 lf 1015,3 hPa 0,2 l/m 0,00 h 1,00 h 99 W/m 16,7 km/h (3 Bft) 95,88 %
07.02.2017 14:00 4,9 C 5,0 C 4,1 C 96 % 12 lf 1014,9 hPa 0,2 l/m 0,00 h 0,37 h 95 W/m 15,3 km/h (3 Bft) 96,51 %
07.02.2017 15:00 5,0 C 5,0 C 3,9 C 96 % 3 lf 1014,8 hPa 0,0 l/m 0,00 h 0,07 h 41 W/m 11,7 km/h (2 Bft) 97,57 %
07.02.2017 16:00 4,9 C 5,0 C 3,7 C 96 % 1 lf 1015,1 hPa 0,0 l/m 0,00 h 0,03 h 32 W/m 11,2 km/h (2 Bft) 95,04 %
07.02.2017 17:00 5,1 C 5,0 C 3,7 C 97 % 3 lf 1015,3 hPa 0,0 l/m 0,00 h 0,00 h 14 W/m 10,2 km/h (2 Bft) 95,60 %
07.02.2017 18:00 5,0 C 5,0 C 3,3 C 97 % 10 lf 1015,7 hPa 0,2 l/m 0,00 h 0,17 h 0 W/m 10,7 km/h (2 Bft) 94,80 %
07.02.2017 19:00 4,8 C 4,5 C 3,3 C 97 % 15 lf 1015,9 hPa 0,2 l/m 0,00 h 0,60 h 0 W/m 14,4 km/h (3 Bft) 97,81 %
07.02.2017 20:00 4,7 C 4,4 C 3,3 C 97 % 15 lf 1016,1 hPa 0,2 l/m 0,00 h 0,60 h 0 W/m 8,8 km/h (2 Bft) 97,02 %
07.02.2017 21:00 4,5 C 4,4 C 3,1 C 97 % 15 lf 1016,2 hPa 0,2 l/m 0,00 h 0,80 h 0 W/m 10,3 km/h (2 Bft) 92,82 %
07.02.2017 22:00 4,2 C 4,1 C 2,8 C 97 % 15 lf 1016,3 hPa 0,4 l/m 0,00 h 0,90 h 0 W/m 12,5 km/h (3 Bft) 97,64 %
07.02.2017 23:00 4,0 C 3,9 C 2,6 C 97 % 15 lf 1016,6 hPa 0,2 l/m 0,00 h 0,97 h 0 W/m 15,1 km/h (3 Bft) 95,27 %
08.02.2017 00:00 3,7 C 3,7 C 2,2 C 97 % 15 lf 1017,0 hPa 0,2 l/m 0,00 h 0,90 h 0 W/m 13,8 km/h (3 Bft) 97,00 %
08.02.2017 01:00 3,6 C 3,4 C 2,2 C 97 % 15 lf 1017,3 hPa 0,0 l/m 0,00 h 0,90 h 0 W/m 10,2 km/h (2 Bft) 95,30 %
08.02.2017 02:00 3,4 C 3,3 C 2,2 C 97 % 11 lf 1017,6 hPa 0,2 l/m 0,00 h 0,97 h 0 W/m 13,5 km/h (3 Bft) 94,64 %
08.02.2017 03:00 3,3 C 3,3 C 1,7 C 96 % 5 lf 1017,7 hPa 0,0 l/m 0,00 h 0,93 h 0 W/m 11,9 km/h (2 Bft) 96,42 %
08.02.2017 04:00 3,2 C 3,3 C 1,7 C 96 % 2 lf 1018,1 hPa 0,0 l/m 0,00 h 0,38 h 0 W/m 13,7 km/h (3 Bft) 96,30 %
08.02.2017 05:00 3,2 C 3,0 C 1,7 C 96 % 0 lf 1018,5 hPa 0,0 l/m 0,00 h 0,00 h 0 W/m 11,7 km/h (2 Bft) 96,16 %
08.02.2017 06:00 3,2 C 3,3 C 1,7 C 95 % 0 lf 1019,0 hPa 0,0 l/m 0,00 h 0,00 h 0 W/m 11,7 km/h (2 Bft) 93,43 %
08.02.2017 07:00 3,2 C 3,3 C 1,7 C 94 % 0 lf 1019,6 hPa 0,0 l/m 0,00 h 0,00 h 11 W/m 11,8 km/h (2 Bft) 96,25 %
08.02.2017 08:00 3,2 C 3,7 C 1,7 C 92 % 0 lf 1020,4 hPa 0,2 l/m 0,00 h 0,00 h 19 W/m 15,7 km/h (3 Bft) 98,08 %
08.02.2017 09:00 3,2 C 3,9 C 1,7 C 90 % 0 lf 1021,2 hPa 0,0 l/m 0,00 h 0,00 h 59 W/m 16,7 km/h (3 Bft) 94,76 %
08.02.2017 10:00 3,5 C 4,4 C 2,3 C 88 % 0 lf 1021,6 hPa 0,0 l/m 0,00 h 0,00 h 104 W/m 17,3 km/h (3 Bft) 94,21 %
08.02.2017 11:00 3,9 C 5,0 C 4,1 C 86 % 0 lf 1022,0 hPa 0,0 l/m 0,00 h 0,00 h 143 W/m 16,9 km/h (3 Bft) 97,37 %
08.02.2017 12:00 4,4 C 5,8 C 4,9 C 84 % 0 lf 1022,1 hPa 0,0 l/m 0,00 h 0,00 h 175 W/m 18,0 km/h (3 Bft) 94,78 %
08.02.2017 13:00 5,0 C 6,3 C 5,4 C 83 % 0 lf 1022,3 hPa 0,0 l/m 0,00 h 0,00 h 168 W/m 16,3 km/h (3 Bft) 97,01 %
08.02.2017 14:00 5,6 C 7,0 C 5,8 C 85 % 0 lf 1022,5 hPa 0,0 l/m 0,07 h 0,00 h 163 W/m 15,0 km/h (3 Bft) 96,16 %
08.02.2017 15:00 5,6 C 6,7 C 5,5 C 85 % 0 lf 1022,8 hPa 0,0 l/m 0,53 h 0,00 h 141 W/m 15,2 km/h (3 Bft) 93,54 %
08.02.2017 16:00 5,1 C 5,4 C 4,0 C 84 % 0 lf 1023,2 hPa 0,0 l/m 0,00 h 0,00 h 57 W/m 14,0 km/h (3 Bft) 97,86 %
08.02.2017 17:00 4,5 C 4,3 C 2,7 C 85 % 0 lf 1023,7 hPa 0,0 l/m 0,00 h 0,00 h 11 W/m 13,0 km/h (3 Bft) 96,49 %
08.02.2017 18:00 3,5 C 3,0 C 1,3 C 86 % 0 lf 1024,2 hPa 0,0 l/m 0,00 h 0,00 h 0 W/m 13,6 km/h (3 Bft) 93,90 %
08.02.2017 19:00 2,9 C 2,8 C 1,1 C 88 % 0 lf 1024,7 hPa 0,0 l/m 0,00 h 0,00 h 0 W/m 14,3 km/h (3 Bft) 96,58 %
08.02.2017 20:00 2,6 C 2,7 C 1,1 C 88 % 0 lf 1025,0 hPa 0,0 l/m 0,00 h 0,00 h 0 W/m 15,5 km/h (3 Bft) 97,06 %
08.02.2017 21:00 2,1 C 2,0 C 0,4 C 88 % 0 lf 1025,4 hPa 0,0 l/m 0,00 h 0,00 h 2 W/m 14,0 km/h (3 Bft) 95,75 %
08.02.2017 22:00 1,6 C 1,5 C -0,2 C 89 % 0 lf 1025,8 hPa 0,0 l/m 0,00 h 0,00 h 3 W/m 11,7 km/h (2 Bft) 96,30 %
08.02.2017 23:00 1,2 C 1,1 C -0,5 C 90 % 0 lf 1026,0 hPa 0,0 l/m 0,00 h 0,00 h 4 W/m 12,7 km/h (3 Bft) 95,09 %
09.02.2017 00:00 0,9 C 1,0 C -0,3 C 90 % 0 lf 1026,3 hPa 0,0 l/m 0,00 h 0,00 h 5 W/m 13,1 km/h (3 Bft) 95,34 %
09.02.2017 01:00 0,6 C 0,6 C -0,7 C 90 % 0 lf 1026,3 hPa 0,0 l/m 0,00 h 0,00 h 5 W/m 12,6 km/h (3 Bft) 95,31 %
09.02.2017 02:00 0,3 C 0,1 C -1,6 C 90 % 0 lf 1026,5 hPa 0,0 l/m 0,00 h 0,00 h 2 W/m 10,9 km/h (2 Bft) 97,38 %
09.02.2017 03:00 0,1 C 0,3 C -1,2 C 91 % 0 lf 1026,5 hPa 0,0 l/m 0,00 h 0,00 h 0 W/m 10,5 km/h (2 Bft) 93,78 %
09.02.2017 04:00 0,2 C 0,6 C -1,0 C 92 % 0 lf 1026,6 hPa 0,0 l/m 0,00 h 0,00 h 0 W/m 10,6 km/h (2 Bft) 94,97 %
09.02.2017 05:00 0,2 C 0,6 C -1,1 C 92 % 0 lf 1026,7 hPa 0,0 l/m 0,00 h 0,00 h 0 W/m 11,3 km/h (2 Bft) 98,50 %
09.02.2017 06:00 0,2 C 0,6 C -1,1 C 92 % 0 lf 1026,8 hPa 0,0 l/m 0,00 h 0,00 h 0 W/m 11,7 km/h (2 Bft) 94,36 %
09.02.2017 07:00 0,1 C 0,4 C -1,1 C 92 % 0 lf 1026,9 hPa 0,0 l/m 0,00 h 0,00 h 0 W/m 13,3 km/h (3 Bft) 96,38 %
09.02.2017 08:00 0,0 C 0,4 C -0,8 C 91 % 0 lf 1027,0 hPa 0,0 l/m 0,00 h 0,00 h 19 W/m 12,3 km/h (3 Bft) 94,88 %
09.02.2017 09:00 0,3 C 1,5 C 0,5 C 91 % 0 lf 1026,9 hPa 0,0 l/m 0,00 h 0,00 h 76 W/m 12,8 km/h (3 Bft) 94,78 %
09.02.2017 10:00 1,1 C 3,1 C 1,8 C 90 % 0 lf 1026,9 hPa 0,0 l/m 0,00 h 0,00 h 141 W/m 15,1 km/h (3 Bft) 97,17 %
09.02.2017 11:00 1,9 C 4,4 C 3,1 C 86 % 0 lf 1026,9 hPa 0,0 l/m 0,73 h 0,00 h 222 W/m 17,1 km/h (3 Bft) 95,87 %
09.02.2017 12:00 2,9 C 5,8 C 3,9 C 83 % 0 lf 1026,4 hPa 0,0 l/m 0,57 h 0,00 h 233 W/m 15,5 km/h (3 Bft) 93,74 %
09.02.2017 13:00 3,7 C 8,0 C 4,1 C 81 % 0 lf 1025,8 hPa 0,0 l/m 0,87 h 0,00 h 263 W/m 15,7 km/h (3 Bft) 98,72 %
09.02.2017 14:00 4,6 C 9,5 C 4,5 C 78 % 0 lf 1025,3 hPa 0,0 l/m 1,00 h 0,00 h 280 W/m 15,2 km/h (3 Bft) 95,30 %
09.02.2017 15:00 4,9 C 7,7 C 3,7 C 75 % 0 lf 1024,8 hPa 0,0 l/m 1,00 h 0,00 h 185 W/m 16,6 km/h (3 Bft) 94,73 %
09.02.2017 16:00 3,7 C 4,0 C 2,4 C 76 % 0 lf 1024,6 hPa 0,0 l/m 0,30 h 0,00 h 82 W/m 18,9 km/h (3 Bft) 97,70 %
09.02.2017 17:00 2,5 C 2,2 C 0,6 C 79 % 0 lf 1024,5 hPa 0,0 l/m 0,07 h 0,00 h 20 W/m 18,3 km/h (3 Bft) 96,37 %
09.02.2017 18:00 1,2 C 1,0 C -0,5 C 82 % 0 lf 1024,4 hPa 0,0 l/m 0,00 h 0,00 h 0 W/m 16,6 km/h (3 Bft) 92,48 %
09.02.2017 19:00 0,5 C 0,6 C -0,7 C 84 % 0 lf 1024,4 hPa 0,0 l/m 0,00 h 0,00 h 0 W/m 17,6 km/h (3 Bft) 97,73 %
09.02.2017 20:00 0,1 C 0,0 C -1,5 C 85 % 0 lf 1024,2 hPa 0,0 l/m 0,00 h 0,00 h 0 W/m 16,2 km/h (3 Bft) 95,73 %
09.02.2017 21:00 -0,4 C -0,9 C -2,3 C 86 % 0 lf 1023,9 hPa 0,0 l/m 0,00 h 0,00 h 0 W/m 12,6 km/h (3 Bft) 95,82 %
09.02.2017 22:00 -0,9 C -1,1 C -2,8 C 87 % 0 lf 1023,7 hPa 0,0 l/m 0,00 h 0,00 h 0 W/m 13,1 km/h (3 Bft) 95,12 %
09.02.2017 23:00 -1,2 C -1,2 C -3,1 C 89 % 0 lf 1023,6 hPa 0,0 l/m 0,00 h 0,00 h 0 W/m 12,3 km/h (3 Bft) 95,85 %
10.02.2017 00:00 -1,6 C -1,9 C -3,6 C 89 % 0 lf 1023,3 hPa 0,0 l/m 0,00 h 0,00 h 0 W/m 12,0 km/h (2 Bft) 94,81 %
10.02.2017 01:00 -2,1 C -2,2 C -3,9 C 90 % 0 lf 1022,9 hPa 0,0 l/m 0,00 h 0,00 h 5 W/m 10,9 km/h (2 Bft) 96,62 %
10.02.2017 02:00 -2,1 C -1,5 C -2,9 C 90 % 0 lf 1022,4 hPa 0,0 l/m 0,00 h 0,00 h 0 W/m 13,7 km/h (3 Bft) 96,45 %
10.02.2017 03:00 -1,5 C -0,9 C -2,2 C 90 % 0 lf 1022,0 hPa 0,0 l/m 0,00 h 0,00 h 0 W/m 12,0 km/h (2 Bft) 93,39 %
10.02.2017 04:00 -1,0 C -0,2 C -1,7 C 87 % 0 lf 1021,7 hPa 0,0 l/m 0,00 h 0,00 h 0 W/m 13,5 km/h (3 Bft) 96,36 %
10.02.2017 05:00 -0,5 C -0,2 C -1,6 C 83 % 0 lf 1021,5 hPa 0,0 l/m 0,00 h 0,00 h 0 W/m 17,1 km/h (3 Bft) 97,79 %
10.02.2017 06:00 -0,7 C -0,6 C -1,7 C 85 % 0 lf 1021,4 hPa 0,0 l/m 0,00 h 0,00 h 0 W/m 18,3 km/h (3 Bft) 95,09 %
10.02.2017 07:00 -0,8 C -0,6 C -1,7 C 86 % 0 lf 1021,3 hPa 0,0 l/m 0,00 h 0,00 h 7 W/m 18,1 km/h (3 Bft) 94,53 %
10.02.2017 08:00 -0,7 C -0,5 C -1,7 C 85 % 0 lf 1021,5 hPa 0,0 l/m 0,00 h 0,00 h 13 W/m 16,8 km/h (3 Bft) 97,31 %
10.02.2017 09:00 -0,6 C 0,0 C -1,3 C 85 % 0 lf 1021,4 hPa 0,0 l/m 0,00 h 0,00 h 30 W/m 16,6 km/h (3 Bft) 93,16 %
10.02.2017 10:00 -0,4 C 0,3 C -0,8 C 84 % 0 lf 1021,3 hPa 0,0 l/m 0,00 h 0,00 h 44 W/m 15,2 km/h (3 Bft) 98,29 %
10.02.2017 11:00 -0,2 C 0,6 C -0,4 C 85 % 0 lf 1021,2 hPa 0,0 l/m 0,00 h 0,00 h 67 W/m 16,2 km/h (3 Bft) 96,16 %
10.02.2017 12:00 0,2 C 1,1 C 0,2 C 84 % 0 lf 1021,0 hPa 0,0 l/m 0,00 h 0,00 h 80 W/m 15,7 km/h (3 Bft) 94,01 %
10.02.2017 13:00 0,6 C 1,4 C 0,8 C 82 % 0 lf 1020,6 hPa 0,0 l/m 0,00 h 0,00 h 81 W/m 14,6 km/h (3 Bft) 97,04 %
10.02.2017 14:00 0,9 C 1,7 C 0,9 C 82 % 0 lf 1020,3 hPa 0,0 l/m 0,00 h 0,00 h 62 W/m 12,2 km/h (2 Bft) 96,99 %
10.02.2017 15:00 1,0 C 1,6 C 0,6 C 83 % 0 lf 1020,0 hPa 0,0 l/m 0,00 h 0,00 h 49 W/m 13,6 km/h (3 Bft) 95,06 %
10.02.2017 16:00 0,9 C 1,1 C 0,1 C 83 % 0 lf 1019,9 hPa 0,0 l/m 0,00 h 0,00 h 28 W/m 13,7 km/h (3 Bft) 96,06 %
10.02.2017 17:00 0,8 C 1,1 C -0,1 C 84 % 0 lf 1019,9 hPa 0,0 l/m 0,00 h 0,00 h 12 W/m 14,7 km/h (3 Bft) 96,43 %
10.02.2017 18:00 0,7 C 1,1 C -0,6 C 85 % 0 lf 1019,9 hPa 0,0 l/m 0,00 h 0,00 h 5 W/m 11,9 km/h (2 Bft) 95,61 %
10.02.2017 19:00 0,5 C 0,7 C -0,6 C 86 % 0 lf 1020,0 hPa 0,0 l/m 0,00 h 0,00 h 5 W/m 9,9 km/h (2 Bft) 97,30 %
10.02.2017 20:00 0,5 C 0,7 C -0,6 C 86 % 0 lf 1020,1 hPa 0,0 l/m 0,00 h 0,00 h 5 W/m 12,1 km/h (2 Bft) 94,68 %
10.02.2017 21:00 0,5 C 0,6 C -0,6 C 86 % 0 lf 1020,1 hPa 0,0 l/m 0,00 h 0,00 h 4 W/m 13,0 km/h (3 Bft) 95,74 %
10.02.2017 22:00 0,4 C 0,6 C -0,6 C 86 % 0 lf 1020,0 hPa 0,0 l/m 0,00 h 0,00 h 0 W/m 13,8 km/h (3 Bft) 95,95 %
10.02.2017 23:00 0,4 C 0,6 C -0,6 C 86 % 0 lf 1019,8 hPa 0,0 l/m 0,00 h 0,00 h 0 W/m 13,6 km/h (3 Bft) 96,77 %
11.02.2017 00:00 0,4 C 0,7 C -0,6 C 86 % 0 lf 1020,0 hPa 0,0 l/m 0,00 h 0,00 h 0 W/m 14,7 km/h (3 Bft) 93,62 %
11.02.2017 01:00 0,5 C 0,8 C -0,7 C 86 % 0 lf 1019,8 hPa 0,0 l/m 0,00 h 0,00 h 0 W/m 12,2 km/h (2 Bft) 95,18 %
11.02.2017 02:00 0,5 C 1,0 C -0,6 C 86 % 0 lf 1019,6 hPa 0,0 l/m 0,00 h 0,00 h 0 W/m 15,7 km/h (3 Bft) 97,06 %
11.02.2017 03:00 0,5 C 0,6 C -0,6 C 87 % 0 lf 1019,3 hPa 0,0 l/m 0,00 h 0,00 h 0 W/m 12,4 km/h (3 Bft) 93,58 %
11.02.2017 04:00 0,4 C 0,4 C -1,0 C 88 % 7 lf 1019,2 hPa 0,0 l/m 0,00 h 0,00 h 0 W/m 11,2 km/h (2 Bft) 96,50 %
11.02.2017 05:00 0,0 C 0,0 C -1,7 C 91 % 3 lf 1019,2 hPa 1,2 l/m 0,00 h 0,13 h 0 W/m 8,7 km/h (2 Bft) 95,46 %
11.02.2017 06:00 -0,2 C 0,0 C -1,7 C 93 % 4 lf 1019,0 hPa 0,6 l/m 0,00 h 0,03 h 0 W/m 10,9 km/h (2 Bft) 95,15 %
11.02.2017 07:00 -0,2 C 0,0 C -1,7 C 94 % 6 lf 1019,0 hPa 0,2 l/m 0,00 h 0,07 h 0 W/m 12,1 km/h (2 Bft) 97,56 %
11.02.2017 08:00 -0,1 C 0,0 C -1,1 C 95 % 14 lf 1019,2 hPa 0,0 l/m 0,00 h 0,03 h 11 W/m 13,2 km/h (3 Bft) 96,66 %
11.02.2017 09:00 0,1 C 0,0 C -1,1 C 96 % 15 lf 1019,3 hPa 0,0 l/m 0,00 h 0,00 h 25 W/m 12,8 km/h (3 Bft) 93,49 %
11.02.2017 10:00 0,5 C 1,1 C -1,0 C 96 % 15 lf 1019,2 hPa 0,0 l/m 0,00 h 0,00 h 64 W/m 10,1 km/h (2 Bft) 98,86 %
11.02.2017 11:00 0,9 C 2,1 C 0,7 C 96 % 13 lf 1019,1 hPa 0,0 l/m 0,10 h 0,00 h 130 W/m 10,1 km/h (2 Bft) 95,39 %
11.02.2017 12:00 1,6 C 2,9 C 2,1 C 96 % 4 lf 1018,9 hPa 0,0 l/m 0,20 h 0,00 h 178 W/m 13,8 km/h (3 Bft) 95,03 %
11.02.2017 13:00 2,0 C 2,8 C 2,3 C 96 % 0 lf 1018,8 hPa 0,0 l/m 0,00 h 0,00 h 108 W/m 10,7 km/h (2 Bft) 95,67 %
11.02.2017 14:00 2,5 C 3,6 C 2,6 C 96 % 0 lf 1018,7 hPa 0,0 l/m 0,00 h 0,00 h 81 W/m 10,8 km/h (2 Bft) 95,52 %
11.02.2017 15:00 3,0 C 4,2 C 3,1 C 95 % 0 lf 1018,5 hPa 0,0 l/m 0,00 h 0,00 h 100 W/m 14,5 km/h (3 Bft) 95,88 %
11.02.2017 16:00 2,8 C 2,9 C 1,7 C 93 % 6 lf 1018,1 hPa 0,0 l/m 0,00 h 0,57 h 17 W/m 13,6 km/h (3 Bft) 97,01 %
11.02.2017 17:00 2,2 C 1,5 C 0,4 C 94 % 15 lf 1018,6 hPa 0,8 l/m 0,00 h 0,90 h 3 W/m 13,8 km/h (3 Bft) 93,39 %
11.02.2017 18:00 1,0 C 0,5 C -1,1 C 94 % 15 lf 1018,8 hPa 0,4 l/m 0,00 h 0,87 h 0 W/m 8,1 km/h (2 Bft) 97,01 %
11.02.2017 19:00 0,8 C 1,0 C -0,3 C 95 % 15 lf 1018,7 hPa 0,6 l/m 0,00 h 0,03 h 0 W/m 10,3 km/h (2 Bft) 97,54 %
11.02.2017 20:00 1,4 C 1,7 C 0,4 C 96 % 15 lf 1018,7 hPa 0,8 l/m 0,00 h 0,90 h 0 W/m 13,0 km/h (3 Bft) 95,56 %
11.02.2017 21:00 1,7 C 1,7 C 0,6 C 97 % 15 lf 1018,8 hPa 1,4 l/m 0,00 h 1,00 h 0 W/m 12,4 km/h (3 Bft) 95,44 %
11.02.2017 22:00 1,8 C 2,2 C 0,6 C 97 % 15 lf 1018,9 hPa 1,2 l/m 0,00 h 1,00 h 0 W/m 8,7 km/h (2 Bft) 95,92 %
11.02.2017 23:00 1,8 C 2,2 C 0,6 C 97 % 15 lf 1018,8 hPa 1,0 l/m 0,00 h 1,00 h 0 W/m 9,7 km/h (2 Bft) 97,45 %
12.02.2017 00:00 1,9 C 2,2 C 0,6 C 97 % 15 lf 1019,1 hPa 0,2 l/m 0,00 h 0,77 h 0 W/m 12,9 km/h (3 Bft) 95,43 %
12.02.2017 01:00 1,9 C 2,2 C 0,6 C 97 % 15 lf 1019,3 hPa 0,0 l/m 0,00 h 0,20 h 0 W/m 12,3 km/h (3 Bft) 95,81 %
12.02.2017 02:00 1,8 C 2,0 C 0,6 C 98 % 15 lf 1019,5 hPa 0,0 l/m 0,00 h 0,03 h 0 W/m 12,4 km/h (3 Bft) 95,81 %
12.02.2017 03:00 1,8 C 2,2 C 0,6 C 98 % 15 lf 1020,0 hPa 0,0 l/m 0,00 h 0,00 h 0 W/m 9,7 km/h (2 Bft) 95,10 %
12.02.2017 04:00 1,9 C 2,2 C 0,9 C 98 % 15 lf 1020,4 hPa 0,0 l/m 0,00 h 0,00 h 0 W/m 10,2 km/h (2 Bft) 98,88 %
12.02.2017 05:00 2,3 C 2,7 C 1,4 C 98 % 15 lf 1020,8 hPa 0,0 l/m 0,00 h 0,07 h 0 W/m 13,2 km/h (3 Bft) 94,58 %
12.02.2017 06:00 2,7 C 3,3 C 1,7 C 98 % 15 lf 1021,2 hPa 0,0 l/m 0,00 h 0,17 h 0 W/m 17,1 km/h (3 Bft) 94,72 %
12.02.2017 07:00 2,8 C 2,9 C 1,7 C 97 % 4 lf 1021,8 hPa 0,0 l/m 0,00 h 0,30 h 0 W/m 21,1 km/h (4 Bft) 97,45 %
12.02.2017 08:00 2,9 C 2,9 C 1,4 C 92 % 0 lf 1022,8 hPa 0,0 l/m 0,00 h 0,00 h 15 W/m 18,7 km/h (3 Bft) 96,66 %
12.02.2017 09:00 3,2 C 3,4 C 2,4 C 90 % 0 lf 1023,5 hPa 0,0 l/m 0,00 h 0,00 h 65 W/m 17,8 km/h (3 Bft) 93,44 %
12.02.2017 10:00 3,2 C 4,0 C 2,8 C 90 % 0 lf 1023,9 hPa 0,0 l/m 0,00 h 0,00 h 88 W/m 17,4 km/h (3 Bft) 96,50 %
12.02.2017 11:00 4,0 C 5,9 C 4,7 C 89 % 0 lf 1024,7 hPa 0,0 l/m 0,23 h 0,00 h 178 W/m 18,1 km/h (3 Bft) 95,26 %
12.02.2017 12:00 4,9 C 7,4 C 5,6 C 87 % 0 lf 1025,1 hPa 0,0 l/m 0,40 h 0,00 h 238 W/m 18,7 km/h (3 Bft) 97,04 %
12.02.2017 13:00 6,3 C 8,7 C 6,5 C 83 % 0 lf 1025,0 hPa 0,0 l/m 0,37 h 0,00 h 235 W/m 18,1 km/h (3 Bft) 96,30 %
12.02.2017 14:00 7,4 C 11,6 C 7,2 C 81 % 0 lf 1024,8 hPa 0,0 l/m 1,00 h 0,00 h 302 W/m 19,4 km/h (3 Bft) 94,82 %
12.02.2017 15:00 8,7 C 12,7 C 7,2 C 77 % 0 lf 1024,7 hPa 0,0 l/m 1,00 h 0,00 h 230 W/m 15,7 km/h (3 Bft) 96,53 %
12.02.2017 16:00 8,2 C 8,9 C 5,6 C 77 % 0 lf 1024,9 hPa 0,0 l/m 0,93 h 0,00 h 110 W/m 17,4 km/h (3 Bft) 96,34 %
12.02.2017 17:00 6,6 C 6,4 C 3,9 C 80 % 0 lf 1025,4 hPa 0,0 l/m 0,57 h 0,00 h 38 W/m 20,0 km/h (4 Bft) 94,53 %
12.02.2017 18:00 5,3 C 5,1 C 2,7 C 83 % 0 lf 1026,0 hPa 0,0 l/m 0,00 h 0,00 h 0 W/m 17,5 km/h (3 Bft) 96,86 %
12.02.2017 19:00 4,1 C 3,9 C 1,8 C 85 % 0 lf 1026,6 hPa 0,0 l/m 0,00 h 0,00 h 0 W/m 17,7 km/h (3 Bft) 98,30 %
12.02.2017 20:00 3,0 C 2,6 C 0,4 C 87 % 0 lf 1027,0 hPa 0,0 l/m 0,00 h 0,00 h 0 W/m 15,7 km/h (3 Bft) 92,43 %
12.02.2017 21:00 2,0 C 2,0 C 0,0 C 89 % 0 lf 1027,4 hPa 0,0 l/m 0,00 h 0,00 h 0 W/m 18,2 km/h (3 Bft) 96,60 %
12.02.2017 22:00 1,3 C 1,3 C -0,6 C 90 % 0 lf 1027,6 hPa 0,0 l/m 0,00 h 0,00 h 5 W/m 16,4 km/h (3 Bft) 97,02 %
12.02.2017 23:00 0,7 C 0,7 C -1,1 C 91 % 1 lf 1027,7 hPa 0,0 l/m 0,00 h 0,00 h 5 W/m 12,8 km/h (3 Bft) 94,06 %
Min-Datum _ 10.02.17 06.02.17 10.02.17 06.02.17 06.02.17 06.02.17 - - - - 06.02.17 10.02.17
_ Min-Zeit 01:56 06:56 00:28 14:24 00:00 00:00 - - - - 05:42 09:54
Minimum _ -2,3 C -2,2 C -3,9 C 66 % 0 lf 1007,7 hPa - - - - 0,0 km/h (0 Bft) 82,98 %
Max-Datum _ 06.02.17 06.02.17 12.02.17 12.02.17 06.02.17 12.02.17 11.02.17 06.02.17 07.02.17 06.02.17 11.02.17 06.02.17
_ Max-Zeit 14:02 13:22 14:56 02:16 04:54 23:58 21:04 08:16 07:14 13:04 17:28 00:36
Maximum _ 8,9 C 18,3 C 8,9 C 98 % 15 lf 1028,0 hPa 1,4 l/m 0,03 h 0,03 h 526 W/m 29,3 km/h
O (5 Bft)
100,00 %
Durchschnitt _ 2,5 C 3,0 C 1,3 C 89 % 4 lf 1020,4 hPa #12,2 l/m #17:43 h #21:45 h 87 W/m 12,9 km/h (3 Bft) 95,84 %
© 2017 W. Hausmann